createdAt,value
2018-06-09T00:01:59.502Z,21.80
2018-06-09T00:04:28.006Z,21.80
2018-06-09T00:06:56.559Z,21.70
2018-06-09T00:09:25.075Z,21.70
2018-06-09T00:11:53.597Z,21.60
2018-06-09T00:14:22.106Z,21.60
2018-06-09T00:16:50.686Z,21.60
2018-06-09T00:19:19.212Z,21.50
2018-06-09T00:21:47.786Z,21.50
2018-06-09T00:24:16.324Z,21.40
2018-06-09T00:26:44.838Z,21.40
2018-06-09T00:29:13.377Z,21.30
2018-06-09T00:31:41.861Z,21.30
2018-06-09T00:34:10.457Z,21.30
2018-06-09T00:36:38.996Z,21.30
2018-06-09T00:39:08.482Z,21.20
2018-06-09T00:41:37.022Z,21.20
2018-06-09T00:44:05.584Z,21.30
2018-06-09T00:46:34.094Z,21.20
2018-06-09T00:49:02.577Z,21.30
2018-06-09T00:51:31.197Z,21.30
2018-06-09T00:53:59.937Z,21.30
2018-06-09T00:56:39.528Z,21.30
2018-06-09T00:59:08.069Z,21.30
2018-06-09T01:01:36.961Z,21.30
2018-06-09T01:04:05.929Z,21.20
2018-06-09T01:06:34.551Z,21.20
2018-06-09T01:09:03.404Z,21.30
2018-06-09T01:11:32.519Z,21.30
2018-06-09T01:14:01.075Z,21.40
2018-06-09T01:16:29.627Z,21.50
2018-06-09T01:18:58.488Z,21.50
2018-06-09T01:21:27.097Z,21.60
2018-06-09T01:23:55.626Z,21.60
2018-06-09T01:26:24.153Z,21.60
2018-06-09T01:28:52.688Z,21.70
2018-06-09T01:31:21.215Z,21.70
2018-06-09T01:33:49.782Z,21.70
2018-06-09T01:36:18.354Z,21.70
2018-06-09T01:38:46.895Z,21.70
2018-06-09T01:41:15.406Z,21.70
2018-06-09T01:43:43.932Z,21.70
2018-06-09T01:46:12.484Z,21.70
2018-06-09T01:48:40.966Z,21.70
2018-06-09T01:51:09.464Z,21.60
2018-06-09T01:53:37.913Z,21.70
2018-06-09T01:56:06.421Z,21.70
2018-06-09T01:58:34.910Z,21.70
2018-06-09T02:01:03.461Z,21.60
2018-06-09T02:03:31.917Z,21.50
2018-06-09T02:06:00.399Z,21.50
2018-06-09T02:08:28.869Z,21.50
2018-06-09T02:10:57.304Z,21.50
2018-06-09T02:13:25.819Z,21.60
2018-06-09T02:15:54.271Z,21.60
2018-06-09T02:18:22.777Z,21.60
2018-06-09T02:20:51.255Z,21.60
2018-06-09T02:23:19.786Z,21.60
2018-06-09T02:25:48.239Z,21.60
2018-06-09T02:28:16.685Z,21.60
2018-06-09T02:30:45.138Z,21.60
2018-06-09T02:33:13.851Z,21.50
2018-06-09T02:35:42.286Z,21.50
2018-06-09T02:38:10.818Z,21.50
2018-06-09T02:40:39.252Z,21.50
2018-06-09T02:43:07.687Z,21.50
2018-06-09T02:45:36.191Z,21.50
2018-06-09T02:48:04.664Z,21.50
2018-06-09T02:50:33.182Z,21.50
2018-06-09T02:53:01.627Z,21.50
2018-06-09T02:55:30.131Z,21.50
2018-06-09T02:57:58.575Z,21.50
2018-06-09T03:00:27.159Z,21.50
2018-06-09T03:02:55.633Z,21.50
2018-06-09T03:05:24.126Z,21.50
2018-06-09T03:07:52.570Z,21.50
2018-06-09T03:10:21.083Z,21.50
2018-06-09T03:12:49.576Z,21.50
2018-06-09T03:15:18.087Z,21.50
2018-06-09T03:17:46.583Z,21.60
2018-06-09T03:20:15.035Z,21.60
2018-06-09T03:22:43.491Z,21.60
2018-06-09T03:25:11.960Z,21.60
2018-06-09T03:27:40.409Z,21.60
2018-06-09T03:30:08.903Z,21.60
2018-06-09T03:32:37.441Z,21.50
2018-06-09T03:35:05.909Z,21.60
2018-06-09T03:37:34.442Z,21.60
2018-06-09T03:40:03.146Z,21.60
2018-06-09T03:42:31.578Z,21.60
2018-06-09T03:45:00.075Z,21.60
2018-06-09T03:47:28.566Z,21.70
2018-06-09T03:49:57.009Z,21.70
2018-06-09T03:52:25.512Z,21.70
2018-06-09T03:54:54.032Z,21.70
2018-06-09T03:57:22.517Z,21.70
2018-06-09T03:59:50.991Z,21.70
2018-06-09T04:02:19.507Z,21.70
2018-06-09T04:04:47.971Z,21.70
2018-06-09T04:07:16.467Z,21.70
2018-06-09T04:09:44.944Z,21.70
2018-06-09T04:12:13.426Z,21.70
2018-06-09T04:14:41.892Z,21.70
2018-06-09T04:17:10.399Z,21.70
2018-06-09T04:19:38.911Z,21.70
2018-06-09T04:22:08.248Z,21.70
2018-06-09T04:24:36.719Z,21.70
2018-06-09T04:27:05.319Z,21.70
2018-06-09T04:29:33.801Z,21.70
2018-06-09T04:32:02.249Z,21.70
2018-06-09T04:34:30.736Z,21.70
2018-06-09T04:36:59.235Z,21.70
2018-06-09T04:39:27.697Z,21.70
2018-06-09T04:41:56.205Z,21.70
2018-06-09T04:44:24.689Z,21.70
2018-06-09T04:46:53.157Z,21.70
2018-06-09T04:49:21.667Z,21.70
2018-06-09T04:54:18.391Z,21.70
2018-06-09T04:56:46.939Z,21.70
2018-06-09T04:59:15.432Z,21.70
2018-06-09T05:01:43.940Z,21.70
2018-06-09T05:04:12.481Z,21.80
2018-06-09T05:06:40.956Z,21.80
2018-06-09T05:09:09.470Z,21.80
2018-06-09T05:11:37.946Z,21.90
2018-06-09T05:14:06.474Z,21.80
2018-06-09T05:16:35.030Z,21.80
2018-06-09T05:19:03.544Z,21.80
2018-06-09T05:21:32.056Z,21.80
2018-06-09T05:24:00.551Z,21.80
2018-06-09T05:26:29.024Z,21.80
2018-06-09T05:28:57.509Z,21.80
2018-06-09T05:31:26.031Z,21.80
2018-06-09T05:33:54.499Z,21.80
2018-06-09T05:36:22.979Z,21.80
2018-06-09T05:38:51.424Z,21.90
2018-06-09T05:41:19.930Z,21.90
2018-06-09T05:43:48.431Z,21.90
2018-06-09T05:46:16.884Z,21.90
2018-06-09T05:48:45.351Z,21.90
2018-06-09T05:51:13.828Z,22.00
2018-06-09T05:53:42.299Z,22.00
2018-06-09T05:56:10.719Z,22.00
2018-06-09T05:58:39.191Z,22.00
2018-06-09T06:01:07.639Z,22.00
2018-06-09T06:03:36.077Z,22.10
2018-06-09T06:06:04.546Z,22.10
2018-06-09T06:08:33.008Z,22.10
2018-06-09T06:11:01.494Z,22.10
2018-06-09T06:13:29.961Z,22.10
2018-06-09T06:15:58.431Z,22.20
2018-06-09T06:18:26.879Z,22.20
2018-06-09T06:20:55.368Z,22.20
2018-06-09T06:23:23.856Z,22.20
2018-06-09T06:25:52.307Z,22.30
2018-06-09T06:28:20.773Z,22.30
2018-06-09T06:30:49.254Z,22.30
2018-06-09T06:33:17.887Z,22.40
2018-06-09T06:35:46.345Z,22.40
2018-06-09T06:38:14.851Z,22.40
2018-06-09T06:40:43.301Z,22.40
2018-06-09T06:43:12.084Z,22.50
2018-06-09T06:45:40.731Z,22.50
2018-06-09T06:48:09.228Z,22.50
2018-06-09T06:50:37.665Z,22.60
2018-06-09T06:53:06.169Z,22.60
2018-06-09T06:55:34.620Z,22.60
2018-06-09T06:58:03.177Z,22.70
2018-06-09T07:00:31.693Z,22.70
2018-06-09T07:03:00.109Z,22.70
2018-06-09T07:05:29.218Z,22.80
2018-06-09T07:07:58.774Z,22.90
2018-06-09T07:10:27.260Z,22.90
2018-06-09T07:12:57.152Z,22.90
2018-06-09T07:15:25.621Z,23.00
2018-06-09T07:17:54.133Z,23.00
2018-06-09T07:20:22.608Z,23.10
2018-06-09T07:22:51.131Z,23.10
2018-06-09T07:25:19.628Z,23.20
2018-06-09T07:27:48.144Z,23.20
2018-06-09T07:30:16.566Z,23.30
2018-06-09T07:32:45.235Z,23.30
2018-06-09T07:35:13.753Z,23.40
2018-06-09T07:37:42.223Z,23.40
2018-06-09T07:40:10.654Z,23.50
2018-06-09T07:42:39.274Z,23.60
2018-06-09T07:45:07.733Z,23.60
2018-06-09T07:47:36.205Z,23.60
2018-06-09T07:50:04.705Z,23.70
2018-06-09T07:52:33.177Z,23.80
2018-06-09T07:55:01.652Z,23.90
2018-06-09T07:57:30.063Z,24.00
2018-06-09T07:59:58.522Z,24.10
2018-06-09T08:02:27.003Z,24.20
2018-06-09T08:04:55.448Z,24.40
2018-06-09T08:07:23.972Z,24.50
2018-06-09T08:09:52.406Z,24.70
2018-06-09T08:12:20.836Z,24.80
2018-06-09T08:14:49.279Z,25.00
2018-06-09T08:17:17.760Z,25.10
2018-06-09T08:19:46.257Z,25.20
2018-06-09T08:22:14.709Z,25.30
2018-06-09T08:24:43.179Z,25.30
2018-06-09T08:27:11.627Z,25.40
2018-06-09T08:29:40.123Z,25.40
2018-06-09T08:32:08.567Z,25.40
2018-06-09T08:34:37.052Z,25.50
2018-06-09T08:37:05.515Z,25.60
2018-06-09T08:39:33.982Z,25.70
2018-06-09T08:42:02.497Z,25.80
2018-06-09T08:44:30.975Z,26.00
2018-06-09T08:46:59.428Z,26.10
2018-06-09T08:49:27.852Z,26.30
2018-06-09T08:51:56.356Z,26.40
2018-06-09T08:54:24.813Z,26.60
2018-06-09T08:56:53.380Z,26.70
2018-06-09T08:59:21.808Z,26.70
2018-06-09T09:01:50.324Z,26.80
2018-06-09T09:04:18.755Z,26.80
2018-06-09T09:06:47.223Z,26.90
2018-06-09T09:09:15.672Z,27.10
2018-06-09T09:11:44.224Z,27.20
2018-06-09T09:14:12.808Z,27.30
2018-06-09T09:16:41.313Z,27.40
2018-06-09T09:19:09.849Z,27.40
2018-06-09T09:21:38.288Z,27.50
2018-06-09T09:24:06.890Z,27.70
2018-06-09T09:26:35.383Z,27.80
2018-06-09T09:29:03.871Z,27.90
2018-06-09T09:31:32.358Z,28.00
2018-06-09T09:34:00.856Z,28.10
2018-06-09T09:36:29.347Z,28.10
2018-06-09T09:38:57.821Z,28.20
2018-06-09T09:41:26.271Z,28.20
2018-06-09T09:43:54.792Z,28.20
2018-06-09T09:46:23.322Z,28.30
2018-06-09T09:48:51.767Z,28.30
2018-06-09T09:51:20.254Z,28.40
2018-06-09T09:53:48.766Z,28.50
2018-06-09T09:56:17.327Z,28.50
2018-06-09T09:58:45.813Z,28.50
2018-06-09T10:01:14.336Z,28.60
2018-06-09T10:03:42.776Z,28.60
2018-06-09T10:06:11.248Z,28.70
2018-06-09T10:08:39.703Z,28.80
2018-06-09T10:11:08.200Z,28.90
2018-06-09T10:13:36.723Z,28.90
2018-06-09T10:16:05.328Z,29.00
2018-06-09T10:18:33.826Z,29.00
2018-06-09T10:21:02.374Z,29.10
2018-06-09T10:23:30.835Z,29.20
2018-06-09T10:25:59.333Z,29.30
2018-06-09T10:28:27.763Z,29.40
2018-06-09T10:30:56.205Z,29.50
2018-06-09T10:33:24.656Z,29.50
2018-06-09T10:35:53.126Z,29.60
2018-06-09T10:38:21.602Z,29.80
2018-06-09T10:40:50.075Z,29.90
2018-06-09T10:43:18.551Z,30.10
2018-06-09T10:45:47.028Z,30.20
2018-06-09T10:48:15.536Z,30.30
2018-06-09T10:50:44.031Z,30.40
2018-06-09T10:53:12.521Z,30.30
2018-06-09T10:55:41.015Z,30.10
2018-06-09T10:58:09.589Z,29.90
2018-06-09T11:00:37.991Z,29.70
2018-06-09T11:03:06.476Z,29.60
2018-06-09T11:05:34.964Z,29.50
2018-06-09T11:08:03.423Z,29.50
2018-06-09T11:10:31.930Z,29.60
2018-06-09T11:13:00.459Z,29.60
2018-06-09T11:15:28.989Z,29.70
2018-06-09T11:17:57.423Z,29.80
2018-06-09T11:20:25.938Z,29.90
2018-06-09T11:22:54.390Z,30.00
2018-06-09T11:25:22.847Z,30.20
2018-06-09T11:27:51.371Z,30.30
2018-06-09T11:30:19.872Z,30.30
2018-06-09T11:32:48.654Z,30.30
2018-06-09T11:35:17.143Z,30.30
2018-06-09T11:37:45.596Z,30.30
2018-06-09T11:40:14.141Z,30.30
2018-06-09T11:42:42.593Z,30.30
2018-06-09T11:45:11.081Z,30.30
2018-06-09T11:47:39.502Z,30.40
2018-06-09T11:50:08.039Z,30.40
2018-06-09T11:52:36.469Z,30.40
2018-06-09T11:55:04.956Z,30.40
2018-06-09T11:57:33.464Z,30.40
2018-06-09T12:00:01.986Z,30.40
2018-06-09T12:02:30.493Z,30.40
2018-06-09T12:04:58.961Z,30.30
2018-06-09T12:07:27.407Z,30.30
2018-06-09T12:09:55.882Z,30.10
2018-06-09T12:12:24.350Z,30.10
2018-06-09T12:14:52.820Z,30.00
2018-06-09T12:17:21.479Z,30.00
2018-06-09T12:19:50.032Z,30.00
2018-06-09T12:22:18.595Z,30.10
2018-06-09T12:24:47.211Z,30.20
2018-06-09T12:27:15.724Z,30.20
2018-06-09T12:29:44.720Z,30.30
2018-06-09T12:32:13.276Z,30.40
2018-06-09T12:34:41.770Z,30.50
2018-06-09T12:37:10.315Z,30.60
2018-06-09T12:39:38.833Z,30.70
2018-06-09T12:42:07.307Z,30.70
2018-06-09T12:47:04.123Z,30.70
2018-06-09T12:49:32.607Z,30.80
2018-06-09T12:52:02.317Z,30.80
2018-06-09T12:54:31.599Z,30.90
2018-06-09T12:57:06.701Z,30.90
2018-06-09T12:59:35.298Z,31.00
2018-06-09T13:02:03.843Z,31.00
2018-06-09T13:04:33.585Z,31.00
2018-06-09T13:07:04.110Z,31.00
2018-06-09T13:09:33.713Z,30.90
2018-06-09T13:12:02.827Z,30.90
2018-06-09T13:14:33.894Z,30.90
2018-06-09T13:17:02.731Z,31.00
2018-06-09T13:19:32.337Z,31.00
2018-06-09T13:22:07.950Z,31.00
2018-06-09T13:24:43.726Z,31.00
2018-06-09T13:27:18.044Z,31.10
2018-06-09T13:29:46.839Z,31.10
2018-06-09T13:32:15.465Z,31.10
2018-06-09T13:34:44.244Z,31.10
2018-06-09T13:37:12.859Z,31.20
2018-06-09T13:42:10.205Z,31.20
2018-06-09T13:44:38.695Z,31.30
2018-06-09T13:47:07.542Z,31.30
2018-06-09T13:49:36.390Z,31.30
2018-06-09T13:52:05.113Z,31.30
2018-06-09T13:54:33.759Z,31.30
2018-06-09T13:57:02.669Z,31.20
2018-06-09T13:59:31.211Z,31.20
2018-06-09T14:02:01.252Z,31.20
2018-06-09T14:04:30.699Z,31.30
2018-06-09T14:06:59.568Z,31.40
2018-06-09T14:09:28.026Z,31.40
2018-06-09T14:11:56.503Z,31.40
2018-06-09T14:14:24.980Z,31.40
2018-06-09T14:16:53.676Z,31.30
2018-06-09T14:19:22.368Z,31.30
2018-06-09T14:21:51.716Z,31.40
2018-06-09T14:24:20.202Z,31.30
2018-06-09T14:26:48.837Z,31.30
2018-06-09T14:29:17.345Z,31.40
2018-06-09T14:31:45.801Z,31.40
2018-06-09T14:34:14.314Z,31.40
2018-06-09T14:36:42.763Z,31.40
2018-06-09T14:39:11.242Z,31.40
2018-06-09T14:41:39.716Z,31.40
2018-06-09T14:44:09.258Z,31.40
2018-06-09T14:46:37.758Z,31.40
2018-06-09T14:49:06.603Z,31.40
2018-06-09T14:51:35.066Z,31.50
2018-06-09T14:54:05.094Z,31.50
2018-06-09T14:56:33.657Z,31.40
2018-06-09T14:59:02.103Z,31.40
2018-06-09T15:03:58.743Z,31.50
2018-06-09T15:06:27.266Z,31.40
2018-06-09T15:08:57.334Z,31.40
2018-06-09T15:11:26.096Z,31.40
2018-06-09T15:13:54.757Z,31.50
2018-06-09T15:16:23.305Z,31.50
2018-06-09T15:18:52.204Z,31.40
2018-06-09T15:21:20.976Z,31.40
2018-06-09T15:23:49.451Z,31.40
2018-06-09T15:26:17.968Z,31.20
2018-06-09T15:28:46.422Z,31.20
2018-06-09T15:31:14.936Z,31.20
2018-06-09T15:33:43.411Z,31.20
2018-06-09T15:36:12.814Z,31.20
2018-06-09T15:38:47.619Z,31.10
2018-06-09T15:41:16.236Z,31.10
2018-06-09T15:43:46.899Z,31.20
2018-06-09T15:46:16.706Z,31.20
2018-06-09T15:48:45.534Z,31.20
2018-06-09T15:51:14.114Z,31.20
2018-06-09T15:53:42.579Z,31.20
2018-06-09T15:56:13.626Z,31.10
2018-06-09T15:58:43.653Z,31.10
2018-06-09T16:01:12.479Z,31.00
2018-06-09T16:03:43.594Z,31.00
2018-06-09T16:06:12.097Z,30.90
2018-06-09T16:08:40.538Z,30.90
2018-06-09T16:11:09.099Z,30.80
2018-06-09T16:13:37.699Z,30.70
2018-06-09T16:16:06.579Z,30.60
2018-06-09T16:18:35.026Z,30.50
2018-06-09T16:23:33.080Z,30.20
2018-06-09T16:26:02.127Z,30.20
2018-06-09T16:28:30.591Z,30.10
2018-06-09T16:30:59.049Z,30.00
2018-06-09T16:33:27.816Z,30.00
2018-06-09T16:35:56.317Z,29.90
2018-06-09T16:38:24.837Z,29.90
2018-06-09T16:40:53.435Z,29.80
2018-06-09T16:43:22.159Z,29.70
2018-06-09T16:45:50.765Z,29.60
2018-06-09T16:48:19.432Z,29.50
2018-06-09T16:50:47.931Z,29.40
2018-06-09T16:53:16.430Z,29.40
2018-06-09T16:55:44.915Z,29.40
2018-06-09T16:58:14.007Z,29.50
2018-06-09T17:00:43.887Z,29.50
2018-06-09T17:03:12.424Z,29.60
2018-06-09T17:05:40.879Z,29.60
2018-06-09T17:08:09.663Z,29.50
2018-06-09T17:10:38.159Z,29.50
2018-06-09T17:13:07.907Z,29.40
2018-06-09T17:15:43.746Z,29.50
2018-06-09T17:18:12.371Z,29.50
2018-06-09T17:20:40.901Z,29.50
2018-06-09T17:23:09.387Z,29.50
2018-06-09T17:25:37.882Z,29.50
2018-06-09T17:28:06.309Z,29.50
2018-06-09T17:30:34.771Z,29.50
2018-06-09T17:33:03.433Z,29.40
2018-06-09T17:35:31.894Z,29.40
2018-06-09T17:40:28.468Z,29.40
2018-06-09T17:42:56.975Z,29.30
2018-06-09T17:45:25.431Z,29.30
2018-06-09T17:47:53.909Z,29.20
2018-06-09T17:50:22.741Z,29.20
2018-06-09T17:52:51.157Z,29.10
2018-06-09T17:55:19.560Z,29.00
2018-06-09T17:57:48.060Z,28.90
2018-06-09T18:00:16.489Z,28.90
2018-06-09T18:02:44.978Z,28.80
2018-06-09T18:05:13.615Z,28.80
2018-06-09T18:07:42.084Z,28.70
2018-06-09T18:10:10.857Z,28.60
2018-06-09T18:12:39.313Z,28.60
2018-06-09T18:15:08.798Z,28.50
2018-06-09T18:17:37.273Z,28.50
2018-06-09T18:20:05.753Z,28.40
2018-06-09T18:22:34.241Z,28.30
2018-06-09T18:25:02.975Z,28.20
2018-06-09T18:27:31.785Z,28.10
2018-06-09T18:30:00.351Z,28.00
2018-06-09T18:32:29.018Z,27.90
2018-06-09T18:34:57.593Z,27.70
2018-06-09T18:37:26.187Z,27.70
2018-06-09T18:39:54.619Z,27.50
2018-06-09T18:42:23.061Z,27.40
2018-06-09T18:44:51.544Z,27.30
2018-06-09T18:47:19.978Z,27.20
2018-06-09T18:49:48.494Z,27.20
2018-06-09T18:52:17.194Z,27.10
2018-06-09T18:54:45.844Z,27.00
2018-06-09T18:57:14.316Z,26.90
2018-06-09T18:59:42.815Z,26.80
2018-06-09T19:02:11.248Z,26.70
2018-06-09T19:04:39.725Z,26.70
2018-06-09T19:07:08.163Z,26.60
2018-06-09T19:09:36.641Z,26.50
2018-06-09T19:12:05.144Z,26.50
2018-06-09T19:14:33.699Z,26.40
2018-06-09T19:17:02.416Z,26.30
2018-06-09T19:19:30.902Z,26.30
2018-06-09T19:21:59.427Z,26.20
2018-06-09T19:24:27.867Z,26.10
2018-06-09T19:26:56.310Z,26.10
2018-06-09T19:29:24.798Z,26.00
2018-06-09T19:31:53.234Z,25.90
2018-06-09T19:34:21.734Z,25.90
2018-06-09T19:36:50.193Z,25.80
2018-06-09T19:39:18.615Z,25.80
2018-06-09T19:41:47.406Z,25.80
2018-06-09T19:44:16.029Z,25.70
2018-06-09T19:46:44.512Z,25.70
2018-06-09T19:49:12.942Z,25.60
2018-06-09T19:51:41.411Z,25.50
2018-06-09T19:54:09.898Z,25.50
2018-06-09T19:56:38.383Z,25.40
2018-06-09T19:59:06.850Z,25.40
2018-06-09T20:01:35.366Z,25.30
2018-06-09T20:04:03.808Z,25.20
2018-06-09T20:06:32.322Z,25.20
2018-06-09T20:09:00.877Z,25.10
2018-06-09T20:11:29.382Z,25.00
2018-06-09T20:13:57.934Z,25.00
2018-06-09T20:16:26.367Z,24.90
2018-06-09T20:18:54.854Z,24.90
2018-06-09T20:21:23.400Z,24.80
2018-06-09T20:23:51.897Z,24.80
2018-06-09T20:26:20.338Z,24.70
2018-06-09T20:28:48.845Z,24.70
2018-06-09T20:31:17.302Z,24.60
2018-06-09T20:33:45.790Z,24.60
2018-06-09T20:36:14.290Z,24.60
2018-06-09T20:38:42.798Z,24.60
2018-06-09T20:41:11.262Z,24.60
2018-06-09T20:43:40.121Z,24.60
2018-06-09T20:46:08.607Z,24.60
2018-06-09T20:48:37.042Z,24.50
2018-06-09T20:51:05.534Z,24.50
2018-06-09T20:53:34.015Z,24.50
2018-06-09T20:56:02.524Z,24.50
2018-06-09T20:58:36.374Z,24.50
2018-06-09T21:01:04.894Z,24.40
2018-06-09T21:03:33.469Z,24.40
2018-06-09T21:06:02.071Z,24.40
2018-06-09T21:08:30.456Z,24.30
2018-06-09T21:10:58.976Z,24.30
2018-06-09T21:13:27.483Z,24.20
2018-06-09T21:15:56.010Z,24.20
2018-06-09T21:18:24.451Z,24.10
2018-06-09T21:20:53.048Z,24.10
2018-06-09T21:23:21.557Z,24.00
2018-06-09T21:25:50.065Z,23.90
2018-06-09T21:28:23.956Z,23.90
2018-06-09T21:30:57.947Z,23.80
2018-06-09T21:33:43.141Z,23.80
2018-06-09T21:36:13.836Z,23.70
2018-06-09T21:38:47.763Z,23.70
2018-06-09T21:41:21.690Z,23.60
2018-06-09T21:43:52.791Z,23.50
2018-06-09T21:46:26.491Z,23.50
2018-06-09T21:48:55.023Z,23.50
2018-06-09T21:51:23.508Z,23.50
2018-06-09T21:53:52.060Z,23.50
2018-06-09T21:56:20.561Z,23.50
2018-06-09T21:58:49.011Z,23.50
2018-06-09T22:01:17.615Z,23.50
2018-06-09T22:03:46.294Z,23.50
2018-06-09T22:06:14.743Z,23.50
2018-06-09T22:08:43.238Z,23.50
2018-06-09T22:11:11.735Z,23.50
2018-06-09T22:13:40.310Z,23.60
2018-06-09T22:16:08.794Z,23.60
2018-06-09T22:18:37.316Z,23.60
2018-06-09T22:21:05.818Z,23.60
2018-06-09T22:23:34.545Z,23.60
2018-06-09T22:26:03.251Z,23.60
2018-06-09T22:28:31.735Z,23.70
2018-06-09T22:31:00.374Z,23.60
2018-06-09T22:33:29.005Z,23.70
2018-06-09T22:35:57.661Z,23.60
2018-06-09T22:38:26.219Z,23.60
2018-06-09T22:40:54.951Z,23.60
2018-06-09T22:43:23.552Z,23.60
2018-06-09T22:45:52.148Z,23.60
2018-06-09T22:48:20.712Z,23.60
2018-06-09T22:50:49.278Z,23.60
2018-06-09T22:53:17.813Z,23.50
2018-06-09T22:55:46.327Z,23.50
2018-06-09T22:58:14.982Z,23.50
2018-06-09T23:00:48.741Z,23.50
2018-06-09T23:03:17.954Z,23.50
2018-06-09T23:05:46.952Z,23.40
2018-06-09T23:08:16.150Z,23.40
2018-06-09T23:10:45.567Z,23.40
2018-06-09T23:13:14.137Z,23.40
2018-06-09T23:15:43.512Z,23.30
2018-06-09T23:18:12.173Z,23.30
2018-06-09T23:20:40.730Z,23.20
2018-06-09T23:23:09.325Z,23.20
2018-06-09T23:25:37.861Z,23.20
2018-06-09T23:28:06.430Z,23.10
2018-06-09T23:30:34.953Z,23.10
2018-06-09T23:33:04.536Z,23.10
2018-06-09T23:35:33.249Z,23.00
2018-06-09T23:38:01.894Z,23.00
2018-06-09T23:40:30.433Z,23.00
2018-06-09T23:42:59.013Z,22.90
2018-06-09T23:45:27.579Z,22.90
2018-06-09T23:47:56.132Z,22.90
2018-06-09T23:50:24.784Z,22.90
2018-06-09T23:52:53.424Z,22.90
2018-06-09T23:55:21.962Z,22.90
2018-06-09T23:57:50.530Z,22.80
